Time;durP1;ratioP1;P1;durP2;ratioP2;P2;SDS_P1;SDS_P2;PMS_P1;PMS_P2;Temp;Humidity;BMP_temperature;BMP_pressure;BME280_temperature;BME280_humidity;BME280_pressure;Samples;Min_cycle;Max_cycle;Signal;HPM_P1;HPM_P2
2023/09/11 00:00:28;;;;;;;17.80;11.43;;;;;;;25.94;66.37;101266.72;5094254;28;20024;-66
2023/09/11 00:02:53;;;;;;;21.67;11.18;;;;;;;26.10;66.24;101266.91;5094151;28;20032;-64
2023/09/11 00:05:18;;;;;;;21.83;11.32;;;;;;;26.13;65.60;101263.19;5076071;28;20028;-65
2023/09/11 00:07:44;;;;;;;22.17;11.38;;;;;;;26.04;65.82;101250.03;5093877;28;20043;-65
2023/09/11 00:10:09;;;;;;;18.45;10.38;;;;;;;26.14;65.90;101254.97;5094402;28;20028;-67
2023/09/11 00:12:35;;;;;;;19.00;10.85;;;;;;;26.21;65.19;101250.16;5094045;28;20477;-65
2023/09/11 00:15:00;;;;;;;17.77;11.23;;;;;;;26.27;65.43;101254.38;5094056;28;20032;-66
2023/09/11 00:17:25;;;;;;;19.20;11.43;;;;;;;26.13;65.37;101245.09;5094001;28;20111;-64
2023/09/11 00:19:53;;;;;;;20.02;11.15;;;;;;;25.88;66.16;101245.38;5093936;28;20062;-64
2023/09/11 00:22:19;;;;;;;15.10;10.88;;;;;;;25.72;66.70;101247.00;5093872;28;20466;-65
2023/09/11 00:24:44;;;;;;;17.67;11.32;;;;;;;25.71;66.72;101246.13;5094145;28;20103;-66
2023/09/11 00:27:09;;;;;;;16.42;11.00;;;;;;;25.69;67.26;101248.00;5093804;28;20024;-66
2023/09/11 00:29:35;;;;;;;20.75;10.75;;;;;;;25.61;66.92;101247.50;5093920;28;20115;-66
2023/09/11 00:32:00;;;;;;;16.00;10.25;;;;;;;25.64;66.96;101241.91;5092830;28;20040;-63
2023/09/11 00:34:26;;;;;;;15.48;10.63;;;;;;;25.51;67.66;101243.44;5093926;28;20028;-66
2023/09/11 00:36:51;;;;;;;17.00;11.10;;;;;;;25.40;68.06;101245.75;5093549;28;20039;-64
2023/09/11 00:39:17;;;;;;;16.20;11.25;;;;;;;25.37;68.62;101245.88;5093614;28;20384;-64
2023/09/11 00:41:43;;;;;;;17.65;11.23;;;;;;;25.44;68.28;101241.97;5093573;28;20473;-65
2023/09/11 00:44:08;;;;;;;15.90;11.07;;;;;;;25.55;68.02;101242.34;5075272;28;20059;-65
2023/09/11 00:46:34;;;;;;;16.05;10.98;;;;;;;25.48;68.00;101240.84;5093483;28;20024;-65
2023/09/11 00:49:00;;;;;;;25.20;12.00;;;;;;;25.58;67.67;101238.63;5093524;28;20032;-65
2023/09/11 00:51:26;;;;;;;18.55;10.80;;;;;;;25.51;67.79;101242.56;5093641;28;20028;-64
2023/09/11 00:53:52;;;;;;;21.75;11.48;;;;;;;25.34;68.50;101244.19;5093414;28;20035;-65
2023/09/11 00:56:19;;;;;;;15.45;10.82;;;;;;;25.28;68.39;101241.75;5093576;28;20111;-64
2023/09/11 00:58:45;;;;;;;21.05;10.93;;;;;;;25.33;68.33;101233.44;5092983;28;20105;-64
2023/09/11 01:01:11;;;;;;;22.23;12.07;;;;;;;25.37;68.31;101229.66;5093325;28;20116;-64
2023/09/11 01:03:37;;;;;;;16.85;10.98;;;;;;;25.39;68.28;101235.84;5093532;28;20016;-67
2023/09/11 01:06:03;;;;;;;20.55;11.45;;;;;;;25.32;68.46;101226.28;5075015;28;20070;-64
2023/09/11 01:08:28;;;;;;;18.40;11.38;;;;;;;25.13;69.26;101232.47;5092701;28;20051;-66
2023/09/11 01:10:54;;;;;;;19.60;11.02;;;;;;;25.09;69.06;101228.16;5093164;28;20047;-66
2023/09/11 01:13:20;;;;;;;15.18;11.13;;;;;;;25.05;69.25;101236.44;5093331;28;20028;-65
2023/09/11 01:16:18;;;;;;;19.90;11.52;;;;;;;25.10;68.66;101229.94;5093062;28;20020;-65
2023/09/11 01:18:53;;;;;;;19.42;11.80;;;;;;;25.06;69.38;101233.69;5052176;28;20341;-67
2023/09/11 01:21:31;;;;;;;17.52;11.60;;;;;;;24.97;70.12;101232.25;5092989;28;20031;-66
2023/09/11 01:24:24;;;;;;;18.02;11.38;;;;;;;24.90;69.75;101229.88;5093365;28;20024;-66
2023/09/11 01:26:55;;;;;;;19.23;11.70;;;;;;;24.77;70.90;101234.91;5092968;28;20105;-64
2023/09/11 01:29:25;;;;;;;18.40;11.23;;;;;;;24.77;70.37;101234.03;5092892;28;20035;-64
2023/09/11 01:31:53;;;;;;;16.92;11.55;;;;;;;24.60;71.49;101232.91;5092959;28;20108;-66
2023/09/11 01:34:18;;;;;;;19.85;11.60;;;;;;;24.63;71.58;101234.63;5093031;28;20070;-64
2023/09/11 01:36:43;;;;;;;18.95;11.05;;;;;;;24.65;71.14;101232.72;5092948;28;20470;-65
2023/09/11 01:39:10;;;;;;;20.55;11.52;;;;;;;24.60;71.31;101235.63;5092707;28;20028;-66
2023/09/11 01:41:39;;;;;;;15.73;11.48;;;;;;;24.53;71.42;101226.00;5092958;28;20036;-65
2023/09/11 01:44:26;;;;;;;16.65;11.18;;;;;;;24.55;70.87;101226.81;5092640;28;20024;-65
2023/09/11 01:46:57;;;;;;;15.77;11.32;;;;;;;24.52;71.43;101232.34;5093127;28;20073;-65
2023/09/11 01:49:24;;;;;;;15.63;10.43;;;;;;;24.55;71.24;101228.66;5093103;28;20035;-65
2023/09/11 01:51:52;;;;;;;20.67;10.95;;;;;;;24.42;71.29;101221.06;5092906;28;20036;-65
2023/09/11 01:54:19;;;;;;;18.83;11.35;;;;;;;24.33;72.21;101218.69;5092942;28;20073;-66
2023/09/11 01:56:44;;;;;;;20.13;11.48;;;;;;;24.32;72.22;101221.44;5092440;28;20545;-64
2023/09/11 01:59:12;;;;;;;16.35;11.05;;;;;;;24.21;72.07;101209.25;5092393;28;20107;-65
2023/09/11 02:01:37;;;;;;;17.50;11.25;;;;;;;24.19;72.52;101224.63;5092669;28;20024;-65
2023/09/11 02:04:03;;;;;;;23.77;11.80;;;;;;;24.15;72.88;101214.91;5092755;28;20535;-66
2023/09/11 02:06:28;;;;;;;14.05;11.27;;;;;;;24.12;72.96;101211.44;5074518;28;20075;-64
2023/09/11 02:08:54;;;;;;;18.60;11.52;;;;;;;24.06;73.09;101206.28;5092343;28;20047;-64
2023/09/11 02:11:22;;;;;;;16.33;11.43;;;;;;;23.98;73.56;101220.06;5094116;28;20077;-65
2023/09/11 02:13:47;;;;;;;17.92;11.45;;;;;;;23.92;74.12;101210.41;5096376;28;20028;-65
2023/09/11 02:16:13;;;;;;;16.98;11.50;;;;;;;23.85;73.74;101219.66;5102587;28;20036;-64
2023/09/11 02:18:39;;;;;;;16.58;11.30;;;;;;;23.85;73.94;101214.25;5116771;28;20034;-66
2023/09/11 02:21:05;;;;;;;18.15;11.13;;;;;;;23.85;73.64;101208.88;5116765;28;20114;-64
2023/09/11 02:23:31;;;;;;;14.63;10.35;;;;;;;23.80;73.37;101207.28;5117248;28;20027;-65
2023/09/11 02:25:56;;;;;;;19.98;10.98;;;;;;;23.82;73.73;101205.44;5116612;28;20058;-65
2023/09/11 02:28:21;;;;;;;16.88;11.27;;;;;;;23.78;73.39;101209.19;5116735;28;20028;-65
2023/09/11 02:30:47;;;;;;;15.52;10.82;;;;;;;23.76;73.52;101201.13;5116707;28;20107;-64
2023/09/11 02:33:12;;;;;;;15.43;11.10;;;;;;;23.76;73.95;101192.16;5116527;28;20126;-65
2023/09/11 02:35:38;;;;;;;14.35;11.07;;;;;;;23.76;73.73;101200.25;5116504;28;20028;-66
2023/09/11 02:38:03;;;;;;;16.05;10.82;;;;;;;23.74;72.99;101197.63;5116121;28;20020;-65
2023/09/11 02:40:29;;;;;;;17.17;10.20;;;;;;;23.68;73.49;101196.06;5116293;28;20028;-65
2023/09/11 02:42:54;;;;;;;18.95;11.07;;;;;;;23.53;74.04;101198.41;5097900;28;20047;-65
2023/09/11 02:45:20;;;;;;;17.35;10.93;;;;;;;23.47;75.09;101196.81;5097997;28;20027;-64
2023/09/11 02:47:45;;;;;;;12.75;11.13;;;;;;;23.46;75.14;101203.13;5116352;28;20023;-65
2023/09/11 02:50:10;;;;;;;16.48;10.93;;;;;;;23.45;75.06;101194.16;5116308;28;20076;-65
2023/09/11 02:52:36;;;;;;;16.38;11.00;;;;;;;23.53;74.58;101196.59;5116275;28;20106;-67
2023/09/11 02:55:02;;;;;;;16.38;10.77;;;;;;;23.51;74.49;101198.47;5116035;28;20423;-65
2023/09/11 02:57:27;;;;;;;19.23;11.43;;;;;;;23.57;74.84;101191.97;5116205;28;20031;-65
2023/09/11 02:59:55;;;;;;;15.40;11.73;;;;;;;23.70;74.90;101199.56;5115800;28;20032;-65
2023/09/11 03:02:21;;;;;;;20.02;11.65;;;;;;;23.68;74.54;101192.44;5115856;28;20110;-67
2023/09/11 03:04:49;;;;;;;22.95;11.98;;;;;;;23.75;73.83;101191.28;5116082;28;20111;-65
2023/09/11 03:07:17;;;;;;;15.88;10.50;;;;;;;23.66;73.07;101192.50;5115744;28;20077;-66
2023/09/11 03:09:46;;;;;;;13.25;10.52;;;;;;;23.56;73.46;101185.69;5115447;28;20146;-66
2023/09/11 03:12:11;;;;;;;14.73;10.43;;;;;;;23.56;73.02;101182.13;5115678;28;20032;-65
2023/09/11 03:14:39;;;;;;;19.27;11.40;;;;;;;23.54;73.50;101186.66;5097386;28;20039;-66
2023/09/11 03:17:04;;;;;;;14.48;10.77;;;;;;;23.52;73.52;101183.16;5115583;28;20020;-65
2023/09/11 03:19:33;;;;;;;15.52;11.68;;;;;;;23.59;73.68;101173.88;5115541;28;20028;-66
2023/09/11 03:21:59;;;;;;;20.20;11.98;;;;;;;23.54;74.27;101179.44;5115163;28;20090;-66
2023/09/11 03:24:24;;;;;;;17.27;11.02;;;;;;;23.41;74.44;101170.06;5097141;28;20032;-64
2023/09/11 03:26:50;;;;;;;16.27;10.57;;;;;;;23.45;73.63;101169.88;5115643;28;20115;-65
2023/09/11 03:29:17;;;;;;;16.83;11.15;;;;;;;23.36;73.62;101170.25;5115481;28;20023;-64
2023/09/11 03:31:43;;;;;;;17.83;11.27;;;;;;;23.38;73.92;101173.78;5114411;28;20043;-65
2023/09/11 03:34:09;;;;;;;12.38;10.25;;;;;;;23.35;73.80;101163.09;5115350;28;20030;-65
2023/09/11 03:36:35;;;;;;;17.50;11.82;;;;;;;23.29;75.39;101165.13;5115250;28;20019;-65
2023/09/11 03:39:00;;;;;;;18.85;11.20;;;;;;;23.34;75.28;101160.44;5114976;28;20038;-66
2023/09/11 03:41:26;;;;;;;18.10;11.27;;;;;;;23.24;75.66;101160.78;5115332;28;20027;-65
2023/09/11 03:43:51;;;;;;;14.63;11.30;;;;;;;23.20;75.55;101163.63;5114927;28;20015;-64
2023/09/11 03:46:17;;;;;;;18.35;11.70;;;;;;;23.10;75.76;101160.41;5115012;28;20518;-65
2023/09/11 03:48:42;;;;;;;20.52;12.13;;;;;;;23.01;75.67;101158.06;5096817;28;20432;-65
2023/09/11 03:51:08;;;;;;;18.38;11.43;;;;;;;23.04;75.18;101154.34;5115111;28;20102;-64
2023/09/11 03:53:33;;;;;;;17.75;11.20;;;;;;;23.05;75.86;101153.44;5114838;28;20422;-65
2023/09/11 03:55:59;;;;;;;17.23;11.48;;;;;;;23.09;76.00;101139.78;5114736;28;20110;-66
2023/09/11 03:58:24;;;;;;;18.23;10.88;;;;;;;23.15;76.59;101141.38;5114913;28;20031;-65
2023/09/11 04:00:50;;;;;;;16.13;11.73;;;;;;;22.99;75.53;101146.44;5114788;28;20529;-64
2023/09/11 04:03:15;;;;;;;16.88;11.55;;;;;;;22.83;76.09;101137.13;5096425;28;20027;-66
2023/09/11 04:05:41;;;;;;;19.13;12.00;;;;;;;22.78;76.18;101139.94;5114888;28;20108;-65
2023/09/11 04:08:06;;;;;;;21.33;12.23;;;;;;;22.69;77.12;101141.16;5114307;28;20535;-66
2023/09/11 04:10:32;;;;;;;15.70;11.98;;;;;;;22.67;77.60;101139.47;5114408;28;20035;-65
2023/09/11 04:12:57;;;;;;;21.33;12.15;;;;;;;22.59;78.18;101142.41;5095893;28;20477;-65
2023/09/11 04:15:22;;;;;;;19.73;12.25;;;;;;;22.58;78.01;101132.59;5114364;28;20110;-65
2023/09/11 04:17:48;;;;;;;16.98;12.23;;;;;;;22.54;78.24;101138.13;5114702;28;20031;-65
2023/09/11 04:20:13;;;;;;;21.20;12.35;;;;;;;22.57;77.96;101136.22;5114369;28;20481;-67
2023/09/11 04:22:39;;;;;;;19.27;12.13;;;;;;;22.50;77.73;101131.97;5096123;28;20019;-65
2023/09/11 04:25:04;;;;;;;18.80;12.20;;;;;;;22.50;78.17;101124.75;5114229;28;20031;-65
2023/09/11 04:27:30;;;;;;;15.70;12.07;;;;;;;22.49;77.60;101138.28;5095859;28;20126;-66
2023/09/11 04:29:56;;;;;;;19.60;12.68;;;;;;;22.47;77.84;101124.84;5095816;28;20031;-65
2023/09/11 04:32:21;;;;;;;17.58;12.48;;;;;;;22.49;78.29;101125.69;5095972;28;20039;-63
2023/09/11 04:34:47;;;;;;;18.65;12.00;;;;;;;22.52;77.11;101118.44;5113404;28;20415;-65
2023/09/11 04:37:13;;;;;;;17.70;12.27;;;;;;;22.42;78.03;101123.25;5095569;28;20024;-66
2023/09/11 04:39:39;;;;;;;17.50;11.48;;;;;;;22.54;78.17;101120.16;5114059;28;20073;-65
2023/09/11 04:42:05;;;;;;;19.58;11.45;;;;;;;22.60;77.73;101114.53;5114220;28;20028;-66
2023/09/11 04:44:31;;;;;;;19.05;11.57;;;;;;;22.67;77.86;101121.47;5113786;28;20105;-64
2023/09/11 04:46:56;;;;;;;19.17;11.98;;;;;;;22.56;77.55;101122.78;5113896;28;20030;-65
2023/09/11 04:49:22;;;;;;;19.50;11.40;;;;;;;22.64;77.45;101118.88;5113982;28;20030;-65
2023/09/11 04:51:48;;;;;;;16.52;11.40;;;;;;;22.63;77.01;101133.28;5113769;28;20027;-65
2023/09/11 04:54:14;;;;;;;21.45;11.75;;;;;;;22.57;77.18;101128.13;5113976;28;20028;-64
2023/09/11 04:56:40;;;;;;;18.00;11.63;;;;;;;22.49;77.80;101135.59;5113841;28;20103;-65
2023/09/11 04:59:05;;;;;;;23.70;12.20;;;;;;;22.41;77.64;101134.97;5113850;28;20066;-65
2023/09/11 05:01:30;;;;;;;16.75;10.75;;;;;;;22.38;78.17;101127.88;5094948;28;20020;-65
2023/09/11 05:03:56;;;;;;;18.83;12.02;;;;;;;22.30;77.58;101132.63;5113090;28;20027;-65
2023/09/11 05:06:21;;;;;;;16.17;11.23;;;;;;;22.28;78.81;101136.31;5095119;28;20030;-66
2023/09/11 05:08:47;;;;;;;21.27;12.23;;;;;;;22.18;78.39;101139.31;5112504;28;20050;-65
2023/09/11 05:11:12;;;;;;;17.63;11.45;;;;;;;22.08;78.78;101118.09;5113393;28;20020;-65
2023/09/11 05:13:38;;;;;;;18.33;11.65;;;;;;;22.19;78.41;101130.31;5112886;28;20051;-64
2023/09/11 05:16:04;;;;;;;16.42;10.73;;;;;;;22.17;79.03;101137.53;5112496;28;20132;-66
2023/09/11 05:18:29;;;;;;;17.67;11.90;;;;;;;22.09;79.21;101131.47;5113016;28;20015;-65
2023/09/11 05:20:54;;;;;;;25.20;11.82;;;;;;;22.03;79.66;101137.06;5112869;28;20107;-64
2023/09/11 05:23:20;;;;;;;18.95;11.70;;;;;;;22.01;79.51;101136.22;5113252;28;20031;-65
2023/09/11 05:25:45;;;;;;;20.02;11.13;;;;;;;22.05;79.83;101142.41;5112784;28;20024;-66
2023/09/11 05:28:11;;;;;;;17.85;11.60;;;;;;;22.06;79.43;101142.38;5113150;28;20035;-64
2023/09/11 05:30:37;;;;;;;18.50;12.10;;;;;;;22.10;79.82;101143.13;5112627;28;20028;-66
2023/09/11 05:33:02;;;;;;;22.52;11.50;;;;;;;22.13;79.46;101140.38;5113004;28;20031;-66
2023/09/11 05:35:28;;;;;;;21.35;11.70;;;;;;;22.16;79.32;101148.34;5112755;28;20447;-65
2023/09/11 05:37:53;;;;;;;17.30;11.02;;;;;;;22.28;79.09;101147.97;5113012;28;20023;-66
2023/09/11 05:40:19;;;;;;;14.90;11.50;;;;;;;22.30;78.64;101148.78;5112612;28;20371;-66
2023/09/11 05:42:44;;;;;;;17.33;10.85;;;;;;;22.42;78.15;101145.69;5112751;28;20076;-66
2023/09/11 05:45:09;;;;;;;19.73;11.40;;;;;;;22.41;78.16;101154.69;5095631;28;20024;-66
2023/09/11 05:47:36;;;;;;;23.70;10.80;;;;;;;22.38;78.29;101151.22;5117181;28;20032;-65
2023/09/11 05:50:02;;;;;;;18.02;10.90;;;;;;;22.42;78.14;101151.06;5099032;28;20159;-64
2023/09/11 05:52:28;;;;;;;16.45;11.30;;;;;;;22.46;78.27;101157.22;5098851;28;20112;-64
2023/09/11 05:54:53;;;;;;;22.10;11.13;;;;;;;22.48;77.67;101160.75;5116701;28;20511;-65
2023/09/11 05:57:18;;;;;;;17.00;10.80;;;;;;;22.56;77.34;101165.88;5098389;28;20020;-65
2023/09/11 05:59:45;;;;;;;17.02;11.02;;;;;;;22.60;77.07;101167.53;5116803;28;20028;-65
2023/09/11 06:02:10;;;;;;;19.08;10.25;;;;;;;22.67;76.67;101166.41;5116721;28;20067;-63
2023/09/11 06:04:36;;;;;;;16.23;9.93;;;;;;;22.69;76.39;101161.81;5116624;28;20496;-66
2023/09/11 06:07:03;;;;;;;19.27;10.48;;;;;;;22.72;76.29;101170.69;5116354;28;20020;-64
2023/09/11 06:09:28;;;;;;;18.30;9.98;;;;;;;22.71;76.24;101168.94;5116353;28;20439;-65
2023/09/11 06:11:54;;;;;;;21.13;10.18;;;;;;;22.72;76.41;101168.00;5116311;28;20059;-65
2023/09/11 06:14:19;;;;;;;19.67;9.80;;;;;;;22.74;75.72;101174.22;5116336;28;20034;-65
2023/09/11 06:16:45;;;;;;;26.10;10.20;;;;;;;22.76;74.95;101174.16;5116523;28;20111;-66
2023/09/11 06:19:10;;;;;;;16.85;9.43;;;;;;;22.75;75.81;101170.59;5116305;28;20027;-65
2023/09/11 06:21:35;;;;;;;15.32;9.45;;;;;;;22.77;75.65;101173.22;5116160;28;20090;-65
2023/09/11 06:24:01;;;;;;;20.17;9.23;;;;;;;22.81;75.78;101174.88;5097727;28;20062;-65
2023/09/11 06:26:26;;;;;;;19.25;9.05;;;;;;;22.83;74.99;101174.84;5116047;28;20377;-66
2023/09/11 06:28:51;;;;;;;19.80;9.48;;;;;;;22.81;75.88;101171.31;5115779;28;20165;-64
2023/09/11 06:31:17;;;;;;;17.42;8.88;;;;;;;22.82;75.97;101176.63;5115973;28;20027;-65
2023/09/11 06:33:44;;;;;;;19.27;8.50;;;;;;;22.88;75.21;101178.25;5116036;28;20036;-66
2023/09/11 06:36:09;;;;;;;16.92;8.25;;;;;;;23.01;75.06;101171.53;5116149;28;20027;-65
2023/09/11 06:38:35;;;;;;;14.93;8.40;;;;;;;23.13;74.80;101173.78;5115793;28;20083;-65
2023/09/11 06:41:00;;;;;;;16.52;8.57;;;;;;;23.30;74.98;101173.19;5116047;28;20027;-66
2023/09/11 06:43:25;;;;;;;18.08;8.05;;;;;;;23.51;73.20;101171.50;5115542;28;20049;-66
2023/09/11 06:45:54;;;;;;;17.30;8.35;;;;;;;23.53;73.09;101171.44;5115454;28;20028;-66
2023/09/11 06:48:21;;;;;;;19.33;8.57;;;;;;;23.69;72.33;101175.34;5115807;28;20063;-67
2023/09/11 06:50:46;;;;;;;18.30;8.70;;;;;;;23.78;71.98;101174.97;5115431;28;20020;-66
2023/09/11 06:53:12;;;;;;;19.85;9.02;;;;;;;23.95;71.55;101171.63;5115567;28;20034;-66
2023/09/11 06:55:45;;;;;;;18.83;9.00;;;;;;;24.01;71.41;101170.50;5115313;28;20069;-67
2023/09/11 06:58:12;;;;;;;18.33;9.13;;;;;;;24.03;70.64;101166.81;5114634;28;20027;-65
2023/09/11 07:00:37;;;;;;;16.25;8.50;;;;;;;23.97;70.40;101175.13;5115643;28;20099;-65
2023/09/11 07:03:03;;;;;;;16.00;8.63;;;;;;;24.10;70.40;101176.38;5115447;28;20665;-65
2023/09/11 07:05:28;;;;;;;16.70;8.50;;;;;;;24.15;70.55;101179.81;5115545;28;20028;-66
2023/09/11 07:07:54;;;;;;;20.58;8.63;;;;;;;24.33;70.38;101175.47;5115130;28;20020;-66
2023/09/11 07:10:19;;;;;;;21.25;8.70;;;;;;;24.34;69.58;101171.81;5115120;28;20469;-65
2023/09/11 07:12:46;;;;;;;17.33;8.77;;;;;;;24.51;69.54;101168.47;5115507;28;20123;-65
2023/09/11 07:15:11;;;;;;;18.88;8.38;;;;;;;24.57;70.01;101170.00;5115245;28;20035;-65
2023/09/11 07:17:37;;;;;;;17.42;8.48;;;;;;;24.71;68.91;101167.59;5115029;28;20041;-66
2023/09/11 07:20:06;;;;;;;15.00;8.48;;;;;;;24.88;67.77;101162.34;5115054;28;20088;-67
2023/09/11 07:22:32;;;;;;;21.17;8.50;;;;;;;25.05;67.58;101169.69;5114912;28;20028;-66
2023/09/11 07:24:58;;;;;;;22.13;8.73;;;;;;;25.21;66.19;101153.72;5114496;28;20092;-66
2023/09/11 07:27:32;;;;;;;17.15;8.18;;;;;;;25.54;65.20;101163.94;5114850;28;20100;-66
2023/09/11 07:29:58;;;;;;;13.35;8.75;;;;;;;25.71;64.36;101162.19;5115096;28;20096;-65
2023/09/11 07:32:23;;;;;;;15.02;8.43;;;;;;;26.00;63.67;101165.38;5114875;28;20473;-67
2023/09/11 07:34:50;;;;;;;18.15;8.18;;;;;;;25.91;63.44;101172.13;5114856;28;20065;-65
2023/09/11 07:37:16;;;;;;;22.08;8.63;;;;;;;26.23;62.70;101172.38;5114537;28;20115;-67
2023/09/11 07:39:41;;;;;;;15.27;8.77;;;;;;;26.15;63.62;101171.88;5114816;28;20109;-66
2023/09/11 07:42:07;;;;;;;13.45;9.02;;;;;;;26.23;63.60;101166.97;5079454;28;20404;-66
2023/09/11 07:44:32;;;;;;;16.98;8.75;;;;;;;26.30;62.10;101172.97;5114451;28;20031;-67
2023/09/11 07:46:57;;;;;;;19.73;9.75;;;;;;;26.52;62.02;101170.09;5114684;28;20059;-67
2023/09/11 07:49:23;;;;;;;15.40;9.10;;;;;;;26.72;62.13;101175.34;5114695;28;20035;-67
2023/09/11 07:51:48;;;;;;;18.33;9.35;;;;;;;27.01;61.70;101181.97;5114513;28;20016;-66
2023/09/11 07:54:13;;;;;;;20.25;9.57;;;;;;;27.16;60.32;101183.94;5114326;28;20039;-66
2023/09/11 07:56:39;;;;;;;21.35;9.93;;;;;;;27.42;58.40;101178.94;5096273;28;20052;-66
2023/09/11 07:59:04;;;;;;;22.58;10.02;;;;;;;27.54;58.75;101180.97;5114070;28;20019;-66
2023/09/11 08:01:30;;;;;;;15.45;9.45;;;;;;;27.81;58.10;101188.59;5114525;28;20538;-65
2023/09/11 08:03:55;;;;;;;18.88;10.75;;;;;;;28.00;56.22;101188.41;5114218;28;20024;-67
2023/09/11 08:06:22;;;;;;;16.02;10.63;;;;;;;28.03;56.16;101186.41;5114427;28;20102;-66
2023/09/11 08:08:48;;;;;;;20.38;10.75;;;;;;;28.20;56.03;101199.91;5094233;28;20155;-66
2023/09/11 08:11:20;;;;;;;26.05;10.98;;;;;;;28.20;56.06;101196.31;5113968;28;20536;-65
2023/09/11 08:13:46;;;;;;;19.63;11.30;;;;;;;28.50;55.78;101210.00;5113800;28;20054;-65
2023/09/11 08:16:15;;;;;;;18.00;11.43;;;;;;;28.65;55.15;101205.50;5113856;28;20016;-67
2023/09/11 08:18:40;;;;;;;19.50;11.43;;;;;;;28.82;54.51;101199.97;5114089;28;20028;-66
2023/09/11 08:21:06;;;;;;;19.80;12.70;;;;;;;28.88;54.37;101202.31;5113806;28;20034;-66
2023/09/11 08:23:31;;;;;;;21.52;12.32;;;;;;;28.94;54.03;101207.34;5113917;28;20118;-66
2023/09/11 08:25:58;;;;;;;21.15;12.93;;;;;;;28.99;54.08;101198.94;5095649;28;20055;-67
2023/09/11 08:28:24;;;;;;;24.90;12.52;;;;;;;29.08;54.16;101206.56;5113870;28;20282;-66
2023/09/11 08:30:51;;;;;;;22.08;13.27;;;;;;;29.14;54.39;101205.31;5113591;28;20042;-65
2023/09/11 08:33:17;;;;;;;23.00;13.80;;;;;;;29.46;53.60;101197.84;5113997;28;20034;-66
2023/09/11 08:35:43;;;;;;;21.95;13.75;;;;;;;29.45;52.55;101202.44;5112809;28;20063;-66
2023/09/11 08:38:08;;;;;;;23.30;13.18;;;;;;;29.57;53.23;101195.38;5113368;28;20404;-66
2023/09/11 08:40:34;;;;;;;23.77;13.73;;;;;;;29.66;52.52;101196.66;5113548;28;20096;-66
2023/09/11 08:42:59;;;;;;;21.15;13.85;;;;;;;29.63;52.92;101194.97;5113740;28;20016;-66
2023/09/11 08:45:28;;;;;;;25.63;13.90;;;;;;;29.78;52.83;101192.25;5113580;28;20116;-67
2023/09/11 08:47:58;;;;;;;28.20;14.05;;;;;;;30.19;51.70;101192.31;5078321;28;20089;-66
2023/09/11 08:50:32;;;;;;;22.45;13.40;;;;;;;30.58;52.34;101199.69;5095220;28;20358;-66
2023/09/11 08:53:01;;;;;;;22.67;13.77;;;;;;;30.79;50.14;101191.03;5113583;28;20384;-66
2023/09/11 08:55:28;;;;;;;18.20;12.98;;;;;;;30.87;49.01;101196.84;5113749;28;20085;-66
2023/09/11 08:57:57;;;;;;;21.02;13.02;;;;;;;31.13;48.38;101205.97;5113283;28;20425;-67
2023/09/11 09:00:24;;;;;;;24.77;13.27;;;;;;;31.30;48.38;101211.16;5113287;28;20473;-67
2023/09/11 09:02:50;;;;;;;17.40;12.80;;;;;;;31.17;47.96;101207.50;5113115;28;20031;-66
2023/09/11 09:05:15;;;;;;;19.63;11.95;;;;;;;31.65;48.09;101202.31;5113234;28;20027;-66
2023/09/11 09:07:43;;;;;;;18.33;13.07;;;;;;;31.94;46.25;101202.94;5113139;28;20102;-67
2023/09/11 09:10:08;;;;;;;21.50;12.77;;;;;;;31.93;46.54;101195.72;5094250;28;20047;-66
2023/09/11 09:12:35;;;;;;;21.55;12.20;;;;;;;32.28;46.35;101194.97;5113151;28;20045;-66
2023/09/11 09:15:03;;;;;;;22.65;11.95;;;;;;;32.57;45.20;101193.69;5112820;28;20015;-66
2023/09/11 09:17:28;;;;;;;19.17;11.50;;;;;;;32.76;44.67;101192.25;5113089;28;20039;-66
2023/09/11 09:19:54;;;;;;;19.77;13.63;;;;;;;32.65;44.59;101196.69;5094393;28;20105;-66
2023/09/11 09:22:19;;;;;;;18.17;12.48;;;;;;;32.79;44.36;101195.63;5113092;28;20431;-66
2023/09/11 09:24:53;;;;;;;18.33;12.20;;;;;;;32.96;44.31;101202.56;5113182;28;20350;-66
2023/09/11 09:27:19;;;;;;;18.30;10.63;;;;;;;33.19;42.66;101197.16;5113360;28;20069;-68
2023/09/11 09:29:47;;;;;;;15.02;9.73;;;;;;;33.34;42.42;101198.69;5112898;28;20036;-67
2023/09/11 09:32:13;;;;;;;14.25;10.43;;;;;;;33.26;41.58;101193.81;5095187;28;20461;-66
2023/09/11 09:34:48;;;;;;;18.35;10.50;;;;;;;33.36;41.85;101202.16;5112757;28;20053;-67
2023/09/11 09:37:19;;;;;;;15.95;9.88;;;;;;;33.76;41.85;101207.22;5112841;28;20373;-67
2023/09/11 09:39:50;;;;;;;18.70;11.32;;;;;;;33.65;42.44;101208.94;5094501;28;20101;-66
2023/09/11 09:42:17;;;;;;;15.60;9.68;;;;;;;33.93;40.24;101203.13;5113117;28;20040;-67
2023/09/11 09:44:52;;;;;;;17.27;9.73;;;;;;;34.13;40.90;101202.34;5112954;28;20100;-66
2023/09/11 09:47:19;;;;;;;18.90;11.40;;;;;;;34.23;40.73;101195.13;5112810;28;20034;-67
2023/09/11 09:49:54;;;;;;;16.23;10.48;;;;;;;34.38;40.80;101199.31;5112758;28;20028;-67
2023/09/11 09:52:22;;;;;;;17.67;11.18;;;;;;;34.22;39.93;101200.72;5112376;28;20042;-67
2023/09/11 09:54:49;;;;;;;17.83;11.00;;;;;;;33.71;41.08;101195.78;5112787;28;20071;-67
2023/09/11 09:57:20;;;;;;;14.40;9.48;;;;;;;33.95;40.38;101192.88;5112830;28;20428;-67
2023/09/11 09:59:54;;;;;;;18.27;9.35;;;;;;;34.14;39.75;101190.41;5112609;28;20393;-66
2023/09/11 10:02:26;;;;;;;15.52;8.43;;;;;;;34.50;39.27;101186.47;5112957;28;20380;-66
2023/09/11 10:04:56;;;;;;;11.90;8.13;;;;;;;34.60;38.52;101187.44;5112815;28;20024;-67
2023/09/11 10:07:58;;;;;;;16.60;8.88;;;;;;;34.86;39.26;101196.19;5111924;28;20056;-66
2023/09/11 10:10:28;;;;;;;17.80;10.32;;;;;;;34.62;39.65;101199.13;5059818;28;20449;-67
2023/09/11 10:13:02;;;;;;;21.95;11.02;;;;;;;34.65;38.93;101198.03;5073710;28;20038;-67
2023/09/11 10:15:29;;;;;;;18.40;9.80;;;;;;;34.86;38.82;101193.44;5092495;28;20115;-66
2023/09/11 10:17:56;;;;;;;15.02;9.68;;;;;;;35.00;38.15;101197.75;5091946;28;20056;-67
2023/09/11 10:20:25;;;;;;;22.58;10.00;;;;;;;35.00;38.04;101202.38;5092282;28;20111;-67
2023/09/11 10:22:54;;;;;;;19.73;10.38;;;;;;;34.84;39.23;101203.66;5091931;28;20082;-67
2023/09/11 10:25:24;;;;;;;18.05;9.95;;;;;;;34.85;38.35;101191.66;5092171;28;20028;-65
2023/09/11 10:27:56;;;;;;;18.67;10.67;;;;;;;34.78;39.05;101189.59;5091438;28;20489;-65
2023/09/11 10:30:25;;;;;;;15.68;10.07;;;;;;;34.84;37.79;101183.56;5091654;28;20106;-61
2023/09/11 10:33:00;;;;;;;22.45;10.23;;;;;;;34.82;38.49;101180.97;5094114;28;20481;-63
2023/09/11 10:35:28;;;;;;;19.27;9.98;;;;;;;34.84;38.02;101183.56;5095597;28;20385;-61
2023/09/11 10:37:56;;;;;;;16.75;10.25;;;;;;;34.99;37.43;101181.38;5095749;28;20162;-60
2023/09/11 10:40:32;;;;;;;15.40;9.43;;;;;;;35.02;38.12;101178.38;5095873;28;20039;-62
2023/09/11 10:42:58;;;;;;;15.63;9.13;;;;;;;35.38;37.14;101172.41;5095863;28;20036;-62
2023/09/11 10:45:33;;;;;;;18.40;10.15;;;;;;;35.28;36.60;101179.72;5095630;28;20032;-61
2023/09/11 10:47:59;;;;;;;13.82;9.55;;;;;;;35.18;37.28;101178.78;5095698;28;20032;-62
2023/09/11 10:50:42;;;;;;;16.30;9.55;;;;;;;35.11;37.26;101180.31;5095253;28;20367;-62
2023/09/11 10:53:09;;;;;;;16.42;8.90;;;;;;;35.21;36.77;101180.41;5100717;28;20099;-62
2023/09/11 10:55:35;;;;;;;16.45;9.57;;;;;;;35.11;35.83;101172.94;5105296;28;20449;-62
2023/09/11 10:58:05;;;;;;;19.95;9.00;;;;;;;34.86;37.69;101176.06;5103198;28;20487;-62
2023/09/11 11:00:35;;;;;;;11.75;7.63;;;;;;;35.11;37.05;101169.34;5105969;28;20020;-62
2023/09/11 11:03:00;;;;;;;15.82;7.57;;;;;;;35.15;37.54;101175.44;5105809;28;20435;-61
2023/09/11 11:05:26;;;;;;;15.10;7.32;;;;;;;35.52;36.17;101171.19;5103976;28;20032;-63
2023/09/11 11:07:52;;;;;;;12.25;8.30;;;;;;;35.16;36.02;101161.56;5103519;28;20449;-62
2023/09/11 11:10:19;;;;;;;12.38;7.38;;;;;;;35.54;35.47;101165.56;5102514;28;20071;-61